Time;durP1;ratioP1;P1;durP2;ratioP2;P2;SDS_P1;SDS_P2;PMS_P1;PMS_P2;Temp;Humidity;BMP_temperature;BMP_pressure;BME280_temperature;BME280_humidity;BME280_pressure;Samples;Min_cycle;Max_cycle;Signal;HPM_P1;HPM_P2
2023/08/23 00:00:33;;;;;;;5.50;3.50;;;;;;;17.64;69.53;99842.63;105908;1258;60556;-79
2023/08/23 00:02:59;;;;;;;5.40;3.40;;;;;;;17.59;69.59;99848.42;106119;1257;72865;-78
2023/08/23 00:05:26;;;;;;;6.80;3.40;;;;;;;17.55;69.58;99858.69;105987;1257;70275;-78
2023/08/23 00:07:53;;;;;;;10.70;4.20;;;;;;;17.59;69.69;99847.36;105802;1255;72754;-77
2023/08/23 00:10:19;;;;;;;6.70;3.60;;;;;;;17.64;69.50;99839.85;105832;1252;60906;-79
2023/08/23 00:12:46;;;;;;;6.00;3.10;;;;;;;17.64;69.52;99843.78;105971;1251;60566;-77
2023/08/23 00:15:13;;;;;;;5.50;3.40;;;;;;;17.64;69.51;99844.20;106037;1251;73909;-78
2023/08/23 00:17:39;;;;;;;5.70;2.90;;;;;;;17.60;69.57;99846.03;105826;1254;60543;-79
2023/08/23 00:20:06;;;;;;;6.70;3.40;;;;;;;17.52;69.71;99849.06;106626;1254;71490;-77
2023/08/23 00:22:33;;;;;;;5.10;3.40;;;;;;;17.45;70.03;99850.53;106264;1254;60443;-78
2023/08/23 00:25:00;;;;;;;5.50;3.30;;;;;;;17.41;70.29;99855.54;106064;1254;60128;-77
2023/08/23 00:27:27;;;;;;;5.10;3.20;;;;;;;17.35;70.36;99858.91;106116;1254;73929;-77
2023/08/23 00:29:53;;;;;;;4.00;3.30;;;;;;;17.28;70.22;99859.08;105905;1254;69714;-77
2023/08/23 00:32:20;;;;;;;5.10;2.80;;;;;;;17.22;70.20;99864.38;105864;1254;60485;-78
2023/08/23 00:34:48;;;;;;;5.50;2.70;;;;;;;17.25;70.37;99865.98;105841;1257;60441;-76
2023/08/23 00:37:15;;;;;;;4.60;2.90;;;;;;;17.27;70.32;99864.65;105932;1253;61103;-77
2023/08/23 00:39:41;;;;;;;6.20;3.00;;;;;;;17.21;70.55;99868.34;105933;1257;60439;-76
2023/08/23 00:42:08;;;;;;;10.50;3.70;;;;;;;17.15;70.61;99867.36;105903;1257;60445;-78
2023/08/23 00:44:34;;;;;;;3.70;2.80;;;;;;;17.10;70.80;99864.93;105760;1254;71733;-77
2023/08/23 00:47:01;;;;;;;4.80;3.10;;;;;;;17.06;70.80;99860.95;105631;1256;60553;-76
2023/08/23 00:49:33;;;;;;;6.10;3.00;;;;;;;17.03;70.70;99848.54;105592;1254;60473;-77
2023/08/23 00:52:04;;;;;;;5.40;3.00;;;;;;;17.01;70.57;99843.50;105943;1257;73758;-76
2023/08/23 00:54:30;;;;;;;7.80;3.00;;;;;;;17.00;70.45;99838.88;105829;1253;70551;-77
2023/08/23 00:56:59;;;;;;;3.80;3.00;;;;;;;17.00;70.55;99837.27;105782;1259;72474;-79
2023/08/23 00:59:27;;;;;;;5.10;3.00;;;;;;;17.02;70.80;99831.69;105756;1254;62276;-77
2023/08/23 01:01:53;;;;;;;7.20;2.70;;;;;;;17.10;70.76;99830.40;105906;1260;60420;-76
2023/08/23 01:04:20;;;;;;;8.40;2.70;;;;;;;17.18;70.54;99824.40;106093;1254;73638;-75
2023/08/23 01:07:05;;;;;;;3.80;2.90;;;;;;;17.17;70.58;99824.27;108270;1253;70756;-75
2023/08/23 01:09:47;;;;;;;3.60;3.00;;;;;;;17.13;70.70;99827.55;107728;1253;71277;-75
2023/08/23 01:12:31;;;;;;;5.60;2.80;;;;;;;17.08;70.54;99827.27;106173;1253;60525;-75
2023/08/23 01:15:10;;;;;;;3.50;2.90;;;;;;;17.03;70.53;99835.54;105816;1255;60733;-75
2023/08/23 01:17:41;;;;;;;3.40;2.80;;;;;;;16.98;70.88;99839.63;105799;1254;72733;-74
2023/08/23 01:20:12;;;;;;;5.90;2.80;;;;;;;16.94;70.91;99840.77;105843;1254;70130;-73
2023/08/23 01:22:44;;;;;;;5.20;3.10;;;;;;;16.89;71.07;99835.16;105661;1254;72490;-73
2023/08/23 01:25:10;;;;;;;4.70;2.60;;;;;;;16.88;71.11;99829.91;105822;1254;60495;-72
2023/08/23 01:27:37;;;;;;;7.20;2.70;;;;;;;16.96;70.84;99827.84;105312;1258;60544;-74
2023/08/23 01:30:22;;;;;;;4.90;2.70;;;;;;;17.00;70.74;99825.73;105774;1257;74053;-73
2023/08/23 01:32:58;;;;;;;4.80;2.80;;;;;;;17.01;70.54;99820.59;105385;1254;70574;-74
2023/08/23 01:35:42;;;;;;;4.80;3.10;;;;;;;17.04;70.37;99822.81;105599;1256;72751;-72
2023/08/23 01:38:09;;;;;;;;;;;;;;;17.08;70.37;99829.66;105721;1253;60462;-73
2023/08/23 01:40:35;;;;;;;5.90;3.30;;;;;;;17.07;70.55;99830.24;105551;1260;60427;-74
2023/08/23 01:43:02;;;;;;;5.50;3.10;;;;;;;17.04;70.38;99835.48;105828;1260;73743;-73
2023/08/23 01:45:30;;;;;;;4.50;3.20;;;;;;;17.02;70.21;99828.30;106544;1254;69313;-73
2023/08/23 01:47:57;;;;;;;7.40;3.60;;;;;;;17.00;70.14;99815.84;105931;1254;73120;-76
2023/08/23 01:50:24;;;;;;;4.80;3.40;;;;;;;17.06;69.88;99816.45;105790;1254;60466;-75
2023/08/23 01:52:50;;;;;;;7.30;3.70;;;;;;;17.09;69.77;99822.34;106110;1252;60412;-75
2023/08/23 01:55:17;;;;;;;8.90;4.10;;;;;;;17.08;70.17;99819.34;106696;1253;72610;-75
2023/08/23 01:57:45;;;;;;;5.30;3.20;;;;;;;17.07;69.81;99818.98;107396;1253;69589;-76
2023/08/23 02:00:12;;;;;;;8.60;3.60;;;;;;;17.08;69.97;99814.91;106059;1257;72394;-75
2023/08/23 02:02:42;;;;;;;5.80;3.80;;;;;;;17.09;69.87;99822.14;105892;1257;60454;-72
2023/08/23 02:05:09;;;;;;;8.10;3.90;;;;;;;17.09;70.17;99834.95;105916;1257;60345;-71
2023/08/23 02:07:35;;;;;;;6.90;3.10;;;;;;;17.10;69.96;99833.25;105596;1257;74016;-74
2023/08/23 02:10:03;;;;;;;5.80;3.60;;;;;;;17.11;70.26;99828.24;105908;1256;69410;-75
2023/08/23 02:12:30;;;;;;;7.60;3.90;;;;;;;17.21;69.72;99831.84;105806;1260;71437;-74
2023/08/23 02:14:57;;;;;;;9.00;3.70;;;;;;;17.27;69.02;99829.23;105473;1254;60509;-75
2023/08/23 02:17:25;;;;;;;6.00;3.70;;;;;;;17.26;68.87;99826.70;106062;1254;60412;-74
2023/08/23 02:19:53;;;;;;;6.90;3.50;;;;;;;17.24;68.81;99836.73;105917;1256;73645;-73
2023/08/23 02:22:19;;;;;;;7.80;3.60;;;;;;;17.21;68.86;99834.27;106319;1255;70810;-74
2023/08/23 02:24:46;;;;;;;6.00;3.50;;;;;;;17.18;68.93;99830.39;105856;1253;70661;-73
2023/08/23 02:27:12;;;;;;;7.70;4.30;;;;;;;17.15;69.12;99827.87;105528;1258;60649;-75
2023/08/23 02:29:39;;;;;;;4.70;3.50;;;;;;;17.11;69.25;99820.82;105746;1254;60524;-74
2023/08/23 02:32:07;;;;;;;9.30;4.10;;;;;;;17.06;69.14;99831.31;105986;1252;74382;-76
2023/08/23 02:34:34;;;;;;;5.40;3.60;;;;;;;17.02;69.28;99838.84;106021;1254;70365;-77
2023/08/23 02:37:01;;;;;;;5.50;3.30;;;;;;;17.07;69.39;99825.16;105902;1256;71249;-74
2023/08/23 02:39:27;;;;;;;7.80;3.70;;;;;;;17.12;69.25;99816.61;105583;1253;60559;-76
2023/08/23 02:41:54;;;;;;;6.30;3.90;;;;;;;17.08;69.26;99810.12;106079;1253;60411;-74
2023/08/23 02:44:21;;;;;;;6.60;3.30;;;;;;;17.01;69.34;99805.67;105925;1255;73848;-74
2023/08/23 02:46:47;;;;;;;8.60;3.60;;;;;;;16.95;69.39;99807.92;105922;1254;70418;-75
2023/08/23 02:49:14;;;;;;;8.30;3.70;;;;;;;16.90;69.49;99816.37;105706;1257;73044;-76
2023/08/23 02:51:41;;;;;;;6.60;3.70;;;;;;;16.84;69.64;99831.83;105738;1259;60550;-75
2023/08/23 02:54:10;;;;;;;4.90;3.60;;;;;;;16.79;69.97;99841.03;105820;1257;60543;-75
2023/08/23 02:56:36;;;;;;;7.20;3.50;;;;;;;16.75;70.10;99850.04;105952;1253;73665;-74
2023/08/23 02:59:04;;;;;;;19.90;11.90;;;;;;;16.79;69.99;99855.83;105832;1253;70093;-73
2023/08/23 03:01:31;;;;;;;7.30;3.90;;;;;;;16.85;69.87;99840.45;105740;1253;73018;-74
2023/08/23 03:03:58;;;;;;;7.00;3.70;;;;;;;16.84;69.87;99835.77;105943;1253;60546;-76
2023/08/23 03:06:24;;;;;;;5.90;3.60;;;;;;;16.82;70.09;99840.69;105863;1252;60464;-75
2023/08/23 03:08:51;;;;;;;7.70;4.80;;;;;;;16.80;70.01;99854.23;105805;1258;73836;-77
2023/08/23 03:11:18;;;;;;;9.30;3.50;;;;;;;16.80;70.15;99860.81;105881;1253;61861;-76
2023/08/23 03:13:44;;;;;;;5.40;3.50;;;;;;;16.78;70.21;99858.29;105863;1252;60579;-75
2023/08/23 03:16:11;;;;;;;7.90;3.70;;;;;;;16.77;70.29;99860.48;105844;1253;60457;-75
2023/08/23 03:18:38;;;;;;;4.80;2.80;;;;;;;16.78;70.27;99851.39;105534;1260;60667;-76
2023/08/23 03:21:05;;;;;;;6.00;3.20;;;;;;;16.84;70.30;99847.30;105933;1254;73850;-76
2023/08/23 03:23:32;;;;;;;8.00;3.40;;;;;;;16.83;70.25;99850.27;105810;1255;70316;-77
2023/08/23 03:25:59;;;;;;;6.50;4.20;;;;;;;16.79;70.14;99854.48;106000;1253;72388;-76
2023/08/23 03:28:26;;;;;;;5.30;3.00;;;;;;;16.74;70.27;99856.02;106043;1253;60445;-78
2023/08/23 03:30:53;;;;;;;6.00;2.90;;;;;;;16.68;70.37;99854.36;106171;1253;60092;-77
2023/08/23 03:33:19;;;;;;;7.90;3.80;;;;;;;16.66;70.44;99862.29;108312;1254;73902;-77
2023/08/23 03:35:53;;;;;;;6.40;3.00;;;;;;;16.65;70.45;99858.48;108482;1253;70094;-76
2023/08/23 03:38:20;;;;;;;5.90;2.70;;;;;;;16.64;70.52;99852.47;107684;1257;71408;-77
2023/08/23 03:40:48;;;;;;;5.70;3.10;;;;;;;16.71;70.38;99852.42;105630;1256;61995;-78
2023/08/23 03:43:14;;;;;;;5.20;3.40;;;;;;;16.76;70.32;99854.00;105995;1252;60457;-79
2023/08/23 03:45:48;;;;;;;7.80;3.30;;;;;;;16.74;70.38;99850.13;105821;1258;60636;-77
2023/08/23 03:48:15;;;;;;;6.90;3.00;;;;;;;16.73;70.40;99854.56;105920;1253;70333;-77
2023/08/23 03:50:42;;;;;;;5.50;2.90;;;;;;;16.73;70.25;99854.20;105854;1254;71418;-76
2023/08/23 03:53:09;;;;;;;5.50;3.00;;;;;;;16.76;70.37;99852.39;105843;1254;60783;-77
2023/08/23 03:55:36;;;;;;;7.70;3.10;;;;;;;16.79;70.67;99855.56;106360;1254;60352;-76
2023/08/23 03:58:04;;;;;;;6.20;3.40;;;;;;;16.84;70.62;99858.08;106105;1252;72413;-78
2023/08/23 04:00:32;;;;;;;5.40;2.80;;;;;;;16.92;70.29;99860.92;105972;1256;69082;-78
2023/08/23 04:03:01;;;;;;;6.10;2.90;;;;;;;17.07;70.18;99862.70;105931;1253;73615;-75
2023/08/23 04:05:28;;;;;;;10.20;2.90;;;;;;;17.19;69.67;99859.70;105934;1253;60600;-77
2023/08/23 04:07:54;;;;;;;3.70;2.90;;;;;;;17.25;69.67;99863.46;105708;1253;60467;-77
2023/08/23 04:10:21;;;;;;;5.50;3.00;;;;;;;17.32;69.66;99865.02;105809;1255;72854;-76
2023/08/23 04:12:47;;;;;;;5.60;3.00;;;;;;;17.42;69.63;99859.71;105835;1253;60528;-75
2023/08/23 04:15:14;;;;;;;4.70;3.00;;;;;;;17.54;69.22;99864.39;105722;1254;72785;-76
2023/08/23 04:17:40;;;;;;;5.80;3.00;;;;;;;17.61;68.64;99862.96;105896;1253;60660;-76
2023/08/23 04:20:09;;;;;;;6.10;3.00;;;;;;;17.63;68.42;99856.30;105976;1253;60586;-76
2023/08/23 04:22:35;;;;;;;7.60;3.50;;;;;;;17.69;68.63;99848.39;106143;1253;73893;-76
2023/08/23 04:25:02;;;;;;;6.20;3.00;;;;;;;17.77;68.45;99843.29;105955;1253;70303;-75
2023/08/23 04:27:29;;;;;;;4.50;2.70;;;;;;;17.85;68.85;99841.08;105719;1253;72500;-77
2023/08/23 04:29:56;;;;;;;5.80;2.90;;;;;;;17.93;68.55;99840.39;105842;1254;61719;-77
2023/08/23 04:32:22;;;;;;;5.30;3.20;;;;;;;18.01;68.60;99839.61;105787;1253;60512;-77
2023/08/23 04:34:49;;;;;;;5.50;3.00;;;;;;;18.15;68.70;99839.83;105762;1253;73814;-78
2023/08/23 04:37:16;;;;;;;6.20;3.00;;;;;;;18.43;67.75;99846.61;105833;1256;60484;-75
2023/08/23 04:39:43;;;;;;;4.80;3.10;;;;;;;18.62;66.77;99850.42;106196;1253;71091;-75
2023/08/23 04:42:09;;;;;;;5.70;3.20;;;;;;;18.68;66.29;99854.55;105979;1253;60534;-76
2023/08/23 04:44:36;;;;;;;6.60;3.40;;;;;;;18.74;66.20;99862.59;106033;1253;60534;-78
2023/08/23 04:47:03;;;;;;;6.10;3.10;;;;;;;18.78;65.97;99862.39;108474;1252;73783;-78
2023/08/23 04:49:31;;;;;;;4.70;3.40;;;;;;;18.78;65.95;99856.15;107855;1257;68722;-74
2023/08/23 04:51:57;;;;;;;5.50;3.50;;;;;;;18.81;66.13;99859.31;106668;1253;73302;-75
2023/08/23 04:54:25;;;;;;;6.20;3.20;;;;;;;18.87;66.58;99855.52;105927;1253;60423;-80
2023/08/23 04:56:52;;;;;;;7.90;3.10;;;;;;;18.93;66.60;99855.05;106196;1253;60547;-81
2023/08/23 04:59:18;;;;;;;5.70;3.60;;;;;;;18.96;66.75;99859.73;106308;1252;73838;-78
2023/08/23 05:01:46;;;;;;;5.90;2.60;;;;;;;19.02;66.71;99863.38;106534;1253;70175;-83
2023/08/23 05:04:12;;;;;;;6.30;3.40;;;;;;;19.06;66.53;99873.28;106054;1253;71391;-84
2023/08/23 05:06:40;;;;;;;5.40;2.70;;;;;;;19.06;66.19;99878.45;106000;1253;60527;-82
2023/08/23 05:09:06;;;;;;;7.70;3.30;;;;;;;19.06;65.88;99873.29;106237;1254;60539;-83
2023/08/23 05:11:33;;;;;;;6.20;3.40;;;;;;;19.06;66.00;99871.27;105819;1258;60571;-81
2023/08/23 05:14:00;;;;;;;5.80;3.90;;;;;;;19.08;65.83;99867.44;105695;1252;69130;-79
2023/08/23 05:16:27;;;;;;;4.30;2.90;;;;;;;19.14;66.24;99866.00;105788;1254;72495;-78
2023/08/23 05:18:53;;;;;;;6.80;3.30;;;;;;;19.21;65.67;99859.92;105924;1253;60502;-79
2023/08/23 05:21:20;;;;;;;4.70;2.80;;;;;;;19.28;65.79;99861.92;106708;1252;60463;-79
2023/08/23 05:23:47;;;;;;;6.90;3.50;;;;;;;19.35;66.00;99862.86;106239;1257;73758;-80
2023/08/23 05:26:14;;;;;;;7.60;3.60;;;;;;;19.42;65.55;99869.45;106060;1254;70067;-80
2023/08/23 05:28:41;;;;;;;5.40;3.00;;;;;;;19.52;65.87;99870.17;105931;1257;72627;-80
2023/08/23 05:31:08;;;;;;;7.30;3.70;;;;;;;19.60;65.33;99872.21;105861;1254;60464;-79
2023/08/23 05:33:34;;;;;;;4.90;3.10;;;;;;;19.70;64.60;99872.98;105878;1253;60525;-79
2023/08/23 05:36:03;;;;;;;6.20;3.30;;;;;;;19.81;64.27;99870.96;105912;1253;73705;-78
2023/08/23 05:38:30;;;;;;;4.50;2.50;;;;;;;19.94;63.94;99867.21;105726;1251;69995;-80
2023/08/23 05:40:57;;;;;;;6.00;3.40;;;;;;;20.04;63.42;99861.55;106105;1252;72643;-79
2023/08/23 05:43:24;;;;;;;4.60;3.20;;;;;;;20.11;63.66;99861.48;106936;1252;60384;-80
2023/08/23 05:45:53;;;;;;;5.80;3.00;;;;;;;20.16;63.50;99862.64;107390;1253;59309;-79
2023/08/23 05:48:21;;;;;;;9.10;3.10;;;;;;;20.25;63.15;99862.23;107545;1253;73839;-78
2023/08/23 05:50:48;;;;;;;5.80;2.70;;;;;;;20.34;63.20;99859.88;107405;1253;70299;-78
2023/08/23 05:53:19;;;;;;;4.60;2.90;;;;;;;20.42;63.41;99857.48;106402;1253;72630;-77
2023/08/23 05:55:49;;;;;;;6.60;2.90;;;;;;;20.52;63.38;99858.26;106424;1253;60473;-78
2023/08/23 05:58:19;;;;;;;4.80;3.40;;;;;;;20.62;63.45;99854.92;106556;1253;60264;-79
2023/08/23 06:00:46;;;;;;;6.30;2.60;;;;;;;20.77;62.96;99856.14;107535;1253;418471;-79
2023/08/23 06:04:51;;;;;;;3.70;2.90;;;;;;;20.99;61.85;99855.45;103943;1296;603578;-80
2023/08/23 06:07:18;;;;;;;4.50;2.90;;;;;;;21.14;61.59;99859.47;105911;1267;59325;-78
2023/08/23 06:09:45;;;;;;;6.00;2.30;;;;;;;21.31;61.60;99851.52;105337;1268;59562;-80
2023/08/23 06:12:12;;;;;;;6.80;2.80;;;;;;;21.44;61.31;99855.91;105338;1267;73038;-80
2023/08/23 06:14:39;;;;;;;3.40;2.40;;;;;;;21.56;61.41;99860.66;105360;1264;70132;-80
2023/08/23 06:17:06;;;;;;;3.60;2.40;;;;;;;21.67;60.79;99859.98;105294;1264;201650;-79
2023/08/23 06:19:33;;;;;;;3.90;2.10;;;;;;;21.80;60.19;99856.72;105589;1257;60172;-80
2023/08/23 06:22:00;;;;;;;3.80;2.50;;;;;;;21.94;59.67;99849.48;105739;1257;60428;-80
2023/08/23 06:24:26;;;;;;;5.40;2.80;;;;;;;22.11;59.49;99845.41;105485;1263;59402;-79
2023/08/23 06:26:53;;;;;;;4.40;2.40;;;;;;;22.26;58.62;99843.13;105543;1262;59337;-80
2023/08/23 06:29:20;;;;;;;4.80;2.50;;;;;;;22.35;58.54;99842.45;105487;1262;72626;-80
2023/08/23 06:31:47;;;;;;;7.50;2.50;;;;;;;22.45;58.46;99847.15;105664;1258;60284;-79
2023/08/23 06:34:13;;;;;;;5.20;2.70;;;;;;;22.50;57.65;99848.61;105496;1257;60015;-79
2023/08/23 06:36:40;;;;;;;6.40;3.20;;;;;;;22.53;57.25;99840.16;105652;1260;72843;-80
2023/08/23 06:39:06;;;;;;;6.30;2.80;;;;;;;22.56;57.03;99848.11;105539;1257;59614;-80
2023/08/23 06:41:46;;;;;;;4.30;2.60;;;;;;;22.49;55.66;99843.64;105636;1260;71515;-80
2023/08/23 06:44:12;;;;;;;5.30;2.40;;;;;;;22.33;55.56;99842.52;105956;1258;60325;-76
2023/08/23 06:46:39;;;;;;;5.30;2.60;;;;;;;22.21;55.66;99845.08;106287;1256;60098;-79
2023/08/23 06:49:06;;;;;;;5.10;2.60;;;;;;;22.17;56.03;99843.00;105724;1257;70913;-80
2023/08/23 06:51:33;;;;;;;6.60;2.20;;;;;;;22.20;56.05;99844.02;105831;1257;70115;-80
2023/08/23 06:53:59;;;;;;;3.70;2.30;;;;;;;22.21;55.46;99845.49;105707;1257;72801;-80
2023/08/23 06:56:26;;;;;;;5.20;2.50;;;;;;;22.19;55.34;99844.70;105704;1257;60369;-80
2023/08/23 06:58:52;;;;;;;5.40;2.40;;;;;;;22.17;54.97;99846.52;105711;1257;60039;-79
2023/08/23 07:01:19;;;;;;;4.50;2.20;;;;;;;22.16;54.86;99845.30;105988;1260;72906;-80
2023/08/23 07:03:46;;;;;;;8.00;3.50;;;;;;;22.12;54.90;99847.19;106038;1257;69136;-81
2023/08/23 07:06:14;;;;;;;6.90;3.00;;;;;;;22.11;55.35;99848.23;105925;1257;72541;-79
2023/08/23 07:08:41;;;;;;;7.80;2.30;;;;;;;22.17;55.26;99850.63;105767;1262;59540;-81
2023/08/23 07:11:08;;;;;;;3.90;2.60;;;;;;;22.22;54.64;99850.77;105782;1262;60497;-80
2023/08/23 07:13:36;;;;;;;3.20;2.30;;;;;;;22.23;53.92;99847.75;106051;1260;72904;-81
2023/08/23 07:16:03;;;;;;;4.50;2.70;;;;;;;22.23;53.85;99843.32;107503;1256;69107;-82
2023/08/23 07:18:30;;;;;;;4.80;2.60;;;;;;;22.25;53.80;99842.52;108297;1256;74044;-80
2023/08/23 07:20:57;;;;;;;4.40;2.60;;;;;;;22.26;53.78;99839.83;107598;1258;60361;-78
2023/08/23 07:23:24;;;;;;;6.20;2.80;;;;;;;22.28;55.21;99844.95;106322;1257;59545;-79
2023/08/23 07:25:51;;;;;;;3.60;2.10;;;;;;;22.28;54.51;99844.04;106329;1257;72744;-80
2023/08/23 07:28:18;;;;;;;4.50;2.50;;;;;;;22.27;54.42;99842.36;106050;1257;68942;-80
2023/08/23 07:30:46;;;;;;;4.80;2.80;;;;;;;22.26;54.12;99842.37;105610;1262;72402;-81
2023/08/23 07:33:12;;;;;;;5.50;3.00;;;;;;;22.23;54.52;99838.88;105535;1260;59690;-81
2023/08/23 07:35:39;;;;;;;7.40;3.30;;;;;;;22.22;55.29;99839.68;105520;1257;60200;-80
2023/08/23 07:38:05;;;;;;;4.20;2.40;;;;;;;22.25;55.46;99839.21;105524;1260;59743;-81
2023/08/23 07:40:36;;;;;;;4.00;2.20;;;;;;;22.31;55.37;99840.09;105504;1261;59707;-80
2023/08/23 07:43:03;;;;;;;4.20;2.30;;;;;;;22.39;54.71;99839.41;105606;1262;72910;-83
2023/08/23 07:45:29;;;;;;;4.30;2.30;;;;;;;22.46;54.18;99838.41;105667;1260;60334;-80
2023/08/23 07:47:56;;;;;;;4.80;2.70;;;;;;;22.51;53.84;99842.66;105988;1257;59630;-80
2023/08/23 07:50:23;;;;;;;5.30;2.40;;;;;;;22.54;54.02;99843.26;106211;1256;72835;-80
2023/08/23 07:52:50;;;;;;;8.30;2.20;;;;;;;22.60;54.07;99843.47;106181;1253;59755;-78
2023/08/23 07:55:16;;;;;;;5.60;2.40;;;;;;;22.65;53.38;99842.14;106539;1253;59802;-80
2023/08/23 07:57:43;;;;;;;6.00;2.50;;;;;;;22.67;53.44;99843.38;107252;1253;60421;-78
2023/08/23 08:00:10;;;;;;;3.30;2.60;;;;;;;22.73;53.79;99849.68;106998;1256;59605;-79
2023/08/23 08:02:37;;;;;;;3.00;1.90;;;;;;;22.82;53.91;99849.46;106381;1253;71740;-79
2023/08/23 08:05:04;;;;;;;5.60;2.70;;;;;;;22.93;52.84;99845.25;106748;1254;69387;-79
2023/08/23 08:07:31;;;;;;;3.30;2.00;;;;;;;23.02;52.80;99844.02;107331;1253;71353;-80
2023/08/23 08:10:19;;;;;;;4.60;2.40;;;;;;;23.12;52.51;99846.48;105958;1255;60235;-80
2023/08/23 08:12:45;;;;;;;2.70;2.30;;;;;;;23.15;52.22;99843.29;106009;1253;60510;-79
2023/08/23 08:15:12;;;;;;;4.50;2.40;;;;;;;23.17;51.56;99845.25;105973;1253;59776;-78
2023/08/23 08:17:39;;;;;;;4.00;2.20;;;;;;;23.15;51.21;99842.24;106165;1256;70081;-78
2023/08/23 08:20:08;;;;;;;4.70;2.30;;;;;;;23.12;51.40;99839.70;106188;1253;72528;-79
2023/08/23 08:22:35;;;;;;;3.50;2.20;;;;;;;23.11;51.64;99843.17;106244;1253;59514;-79
2023/08/23 08:25:03;;;;;;;2.80;2.20;;;;;;;23.15;51.70;99847.11;106256;1253;60129;-79
2023/08/23 08:27:29;;;;;;;4.70;2.30;;;;;;;23.17;51.47;99846.66;106236;1257;72874;-81
2023/08/23 08:29:56;;;;;;;5.80;2.40;;;;;;;23.18;50.97;99845.71;106143;1253;72199;-80
2023/08/23 08:32:24;;;;;;;4.10;2.70;;;;;;;23.21;51.61;99839.66;107062;1253;59706;-79
2023/08/23 08:34:51;;;;;;;5.80;2.60;;;;;;;23.28;51.20;99841.56;108614;1253;61569;-79
2023/08/23 08:37:18;;;;;;;5.70;2.50;;;;;;;23.42;50.81;99842.90;108669;1253;59249;-81
2023/08/23 08:39:45;;;;;;;4.10;2.50;;;;;;;23.55;50.45;99839.05;107107;1255;71959;-82
2023/08/23 08:42:12;;;;;;;4.60;2.30;;;;;;;23.68;50.86;99831.30;106168;1252;70456;-81
2023/08/23 08:44:39;;;;;;;6.00;2.50;;;;;;;23.84;50.30;99830.71;106716;1253;59628;-79
2023/08/23 08:47:05;;;;;;;4.90;2.10;;;;;;;23.96;49.30;99835.34;107623;1253;60057;-81
2023/08/23 08:49:32;;;;;;;6.00;2.40;;;;;;;24.04;49.12;99831.47;106567;1255;59728;-80
2023/08/23 08:51:59;;;;;;;6.20;2.10;;;;;;;24.15;48.88;99831.36;106113;1254;59298;-79
2023/08/23 08:54:26;;;;;;;3.60;2.30;;;;;;;24.21;48.96;99831.31;106184;1253;70185;-83
2023/08/23 08:56:52;;;;;;;5.50;2.40;;;;;;;24.22;50.55;99829.98;106029;1253;72485;-80
2023/08/23 08:59:19;;;;;;;3.60;2.40;;;;;;;24.29;50.42;99831.98;105983;1253;59730;-81
2023/08/23 09:01:45;;;;;;;4.60;2.60;;;;;;;24.47;49.13;99828.75;106080;1253;59630;-80
2023/08/23 09:04:12;;;;;;;6.70;2.30;;;;;;;24.62;48.24;99824.08;106105;1253;72863;-83
2023/08/23 09:06:40;;;;;;;3.80;2.60;;;;;;;24.76;48.63;99820.33;105984;1257;70648;-81
2023/08/23 09:09:07;;;;;;;3.90;2.70;;;;;;;25.02;48.86;99820.08;105889;1253;73683;-81
2023/08/23 09:11:34;;;;;;;4.30;2.40;;;;;;;25.38;48.77;99816.40;105874;1253;60154;-80
2023/08/23 09:14:17;;;;;;;2.90;2.10;;;;;;;25.72;47.96;99814.15;105986;1257;60116;-78
2023/08/23 09:16:44;;;;;;;;;;;;;;;26.07;45.97;99815.86;105961;1255;71475;-79
2023/08/23 09:19:13;;;;;;;4.60;2.20;;;;;;;26.16;45.99;99815.33;105938;1253;70325;-78
2023/08/23 09:21:44;;;;;;;4.90;2.10;;;;;;;26.28;46.84;99815.35;105931;1254;72464;-76
2023/08/23 09:24:11;;;;;;;3.40;2.20;;;;;;;26.52;46.43;99819.19;106117;1257;59731;-78
2023/08/23 09:26:40;;;;;;;3.10;2.80;;;;;;;26.89;45.84;99817.07;106690;1257;59548;-80
2023/08/23 09:29:07;;;;;;;3.60;3.10;;;;;;;27.31;45.16;99817.34;106420;1256;59740;-80
2023/08/23 09:31:33;;;;;;;3.40;2.60;;;;;;;27.72;44.24;99809.94;105967;1252;59622;-79
2023/08/23 09:34:01;;;;;;;2.50;2.30;;;;;;;27.99;43.53;99813.26;106317;1253;72502;-77
2023/08/23 09:36:28;;;;;;;6.20;3.10;;;;;;;28.09;42.56;99815.61;106514;1253;60194;-80
2023/08/23 09:38:56;;;;;;;2.90;2.00;;;;;;;28.19;43.10;99811.55;106579;1253;60244;-79
2023/08/23 09:41:22;;;;;;;4.40;2.70;;;;;;;28.50;42.69;99804.88;106208;1257;72826;-81
2023/08/23 09:43:51;;;;;;;8.10;2.50;;;;;;;29.02;41.79;99809.95;105958;1257;59659;-81
2023/08/23 09:46:20;;;;;;;4.30;2.10;;;;;;;29.65;40.41;99812.48;106091;1253;71260;-82
2023/08/23 09:48:47;;;;;;;4.30;2.70;;;;;;;30.18;39.11;99811.02;106135;1253;60389;-81
2023/08/23 09:51:13;;;;;;;3.60;2.30;;;;;;;30.60;38.41;99807.74;107066;1253;60245;-82
2023/08/23 09:53:40;;;;;;;7.40;2.60;;;;;;;30.80;38.73;99808.00;109007;1253;72157;-80
2023/08/23 09:56:07;;;;;;;5.30;2.50;;;;;;;31.01;38.35;99809.66;108684;1253;57559;-81
2023/08/23 09:58:33;;;;;;;2.90;2.20;;;;;;;31.23;37.36;99809.38;107828;1254;71484;-81
2023/08/23 10:01:00;;;;;;;3.20;2.80;;;;;;;31.38;36.62;99811.11;106611;1253;59480;-79
2023/08/23 10:03:26;;;;;;;3.00;2.50;;;;;;;31.40;36.69;99802.06;107555;1253;60244;-78
2023/08/23 10:05:53;;;;;;;2.70;2.40;;;;;;;31.53;36.70;99798.59;107244;1255;71808;-79
2023/08/23 10:08:20;;;;;;;3.70;2.40;;;;;;;31.92;36.53;99792.20;107973;1253;59686;-79
2023/08/23 10:10:50;;;;;;;3.60;2.10;;;;;;;32.38;35.38;99788.51;106903;1253;71442;-81
2023/08/23 10:13:16;;;;;;;3.20;2.10;;;;;;;32.43;34.95;99790.64;105931;1252;60631;-81
2023/08/23 10:15:43;;;;;;;3.80;2.10;;;;;;;32.15;34.72;99786.30;106026;1253;60619;-81
2023/08/23 10:18:12;;;;;;;2.50;1.80;;;;;;;31.75;35.22;99787.80;105909;1253;73872;-80
2023/08/23 10:20:40;;;;;;;2.80;2.30;;;;;;;31.61;34.76;99787.98;106066;1253;71330;-81
2023/08/23 10:23:16;;;;;;;4.40;2.30;;;;;;;31.48;34.58;99787.04;105878;1252;71300;-81
2023/08/23 10:25:43;;;;;;;6.20;2.50;;;;;;;31.52;35.11;99780.80;105898;1253;60521;-81
2023/08/23 10:28:12;;;;;;;5.00;2.40;;;;;;;31.87;35.22;99776.11;105973;1252;60598;-81
2023/08/23 10:30:39;;;;;;;3.20;2.20;;;;;;;32.37;35.13;99767.41;106071;1254;72256;-82
2023/08/23 10:33:10;;;;;;;2.60;2.00;;;;;;;32.79;34.56;99763.52;106052;1253;70380;-81
2023/08/23 10:35:37;;;;;;;3.50;1.90;;;;;;;33.14;33.69;99768.08;106012;1254;72322;-80
2023/08/23 10:38:04;;;;;;;3.30;2.50;;;;;;;33.07;33.30;99767.13;105920;1253;60695;-83
2023/08/23 10:40:32;;;;;;;3.40;2.10;;;;;;;32.72;33.21;99765.23;106031;1252;60368;-81
2023/08/23 10:43:14;;;;;;;3.20;2.20;;;;;;;32.27;34.14;99769.02;106320;1252;73904;-82
2023/08/23 10:45:51;;;;;;;3.90;2.50;;;;;;;32.07;34.90;99768.20;106350;1252;70179;-81
2023/08/23 10:48:21;;;;;;;4.30;2.30;;;;;;;31.96;34.81;99762.94;106740;1254;71562;-81
2023/08/23 10:50:48;;;;;;;2.90;2.20;;;;;;;31.58;34.61;99766.73;106129;1253;60553;-79
2023/08/23 10:53:15;;;;;;;3.20;2.40;;;;;;;31.11;35.19;99763.23;105993;1257;61099;-79
2023/08/23 10:55:42;;;;;;;3.90;2.90;;;;;;;30.89;36.14;99758.65;106020;1254;73953;-80
2023/08/23 10:58:09;;;;;;;4.10;2.30;;;;;;;31.31;36.36;99758.77;106268;1253;72362;-80
2023/08/23 11:00:36;;;;;;;3.60;2.30;;;;;;;32.10;35.81;99751.38;105970;1253;61039;-79
2023/08/23 11:03:04;;;;;;;4.40;2.60;;;;;;;32.98;34.03;99741.42;105886;1257;60759;-80
2023/08/23 11:05:31;;;;;;;2.60;2.40;;;;;;;33.69;33.67;99737.77;105916;1253;60454;-81
2023/08/23 11:07:58;;;;;;;3.80;2.40;;;;;;;34.35;32.48;99735.59;106133;1253;65336;-80
2023/08/23 11:10:25;;;;;;;3.20;2.40;;;;;;;34.52;31.45;99734.90;106104;1253;60495;-80
2023/08/23 11:12:52;;;;;;;3.80;2.40;;;;;;;34.18;31.60;99734.77;106365;1254;64319;-80
2023/08/23 11:15:22;;;;;;;3.60;2.70;;;;;;;33.87;32.30;99735.04;108514;1254;59270;-79
2023/08/23 11:17:48;;;;;;;3.20;2.20;;;;;;;33.87;32.37;99733.41;108696;1253;60515;-80
2023/08/23 11:20:17;;;;;;;4.20;2.10;;;;;;;33.72;32.10;99734.02;108149;1253;63934;-79
2023/08/23 11:22:43;;;;;;;3.00;2.30;;;;;;;33.17;32.67;99737.09;106138;1253;68711;-79
2023/08/23 11:25:10;;;;;;;3.80;2.60;;;;;;;32.75;33.42;99735.27;106090;1254;60607;-79
2023/08/23 11:27:36;;;;;;;5.60;2.40;;;;;;;32.51;33.55;99737.59;106287;1254;60470;-80